sensor_id;sensor_type;location;lat;lon;timestamp;P1;durP1;ratioP1;P2;durP2;ratioP2
2866;SDS011;1441;48.886;8.728;2023-04-24T00:02:07;0.67;;;0.60;;
2866;SDS011;1441;48.886;8.728;2023-04-24T00:04:35;0.60;;;0.40;;
2866;SDS011;1441;48.886;8.728;2023-04-24T00:07:05;1.63;;;0.60;;
2866;SDS011;1441;48.886;8.728;2023-04-24T00:09:31;0.90;;;0.50;;
2866;SDS011;1441;48.886;8.728;2023-04-24T00:11:58;1.30;;;0.60;;
2866;SDS011;1441;48.886;8.728;2023-04-24T00:14:23;1.10;;;0.57;;
2866;SDS011;1441;48.886;8.728;2023-04-24T00:16:49;0.97;;;0.60;;
2866;SDS011;1441;48.886;8.728;2023-04-24T00:19:15;4.13;;;0.40;;
2866;SDS011;1441;48.886;8.728;2023-04-24T00:21:41;0.93;;;0.40;;
2866;SDS011;1441;48.886;8.728;2023-04-24T00:24:07;1.27;;;0.50;;
2866;SDS011;1441;48.886;8.728;2023-04-24T00:26:34;1.73;;;0.60;;
2866;SDS011;1441;48.886;8.728;2023-04-24T00:28:59;1.47;;;0.63;;
2866;SDS011;1441;48.886;8.728;2023-04-24T00:31:25;1.37;;;0.60;;
2866;SDS011;1441;48.886;8.728;2023-04-24T00:33:51;3.13;;;0.80;;
2866;SDS011;1441;48.886;8.728;2023-04-24T00:36:16;0.40;;;0.40;;
2866;SDS011;1441;48.886;8.728;2023-04-24T00:38:44;1.27;;;0.50;;
2866;SDS011;1441;48.886;8.728;2023-04-24T00:41:10;3.50;;;0.60;;
2866;SDS011;1441;48.886;8.728;2023-04-24T00:43:36;1.13;;;0.70;;
2866;SDS011;1441;48.886;8.728;2023-04-24T00:46:02;0.67;;;0.67;;
2866;SDS011;1441;48.886;8.728;2023-04-24T00:48:27;0.60;;;0.50;;
2866;SDS011;1441;48.886;8.728;2023-04-24T00:50:53;0.60;;;0.43;;
2866;SDS011;1441;48.886;8.728;2023-04-24T00:53:19;0.70;;;0.57;;
2866;SDS011;1441;48.886;8.728;2023-04-24T00:55:44;1.33;;;0.57;;
2866;SDS011;1441;48.886;8.728;2023-04-24T00:58:11;0.50;;;0.50;;
2866;SDS011;1441;48.886;8.728;2023-04-24T01:00:37;0.50;;;0.50;;
2866;SDS011;1441;48.886;8.728;2023-04-24T01:03:04;1.00;;;0.63;;
2866;SDS011;1441;48.886;8.728;2023-04-24T01:05:30;2.30;;;0.80;;
2866;SDS011;1441;48.886;8.728;2023-04-24T01:07:57;1.73;;;0.60;;
2866;SDS011;1441;48.886;8.728;2023-04-24T01:10:24;1.43;;;0.50;;
2866;SDS011;1441;48.886;8.728;2023-04-24T01:12:52;1.73;;;0.50;;
2866;SDS011;1441;48.886;8.728;2023-04-24T01:15:18;1.80;;;0.40;;
2866;SDS011;1441;48.886;8.728;2023-04-24T01:17:44;1.00;;;0.60;;
2866;SDS011;1441;48.886;8.728;2023-04-24T01:20:10;1.60;;;0.60;;
2866;SDS011;1441;48.886;8.728;2023-04-24T01:22:35;2.77;;;0.60;;
2866;SDS011;1441;48.886;8.728;2023-04-24T01:25:01;0.50;;;0.50;;
2866;SDS011;1441;48.886;8.728;2023-04-24T01:27:28;0.57;;;0.50;;
2866;SDS011;1441;48.886;8.728;2023-04-24T01:29:54;2.73;;;0.60;;
2866;SDS011;1441;48.886;8.728;2023-04-24T01:32:19;3.03;;;0.50;;
2866;SDS011;1441;48.886;8.728;2023-04-24T01:34:45;0.50;;;0.50;;
2866;SDS011;1441;48.886;8.728;2023-04-24T01:37:12;2.83;;;0.63;;
2866;SDS011;1441;48.886;8.728;2023-04-24T01:39:37;1.33;;;0.50;;
2866;SDS011;1441;48.886;8.728;2023-04-24T01:42:03;0.50;;;0.50;;
2866;SDS011;1441;48.886;8.728;2023-04-24T01:44:30;0.67;;;0.57;;
2866;SDS011;1441;48.886;8.728;2023-04-24T01:46:56;2.63;;;0.50;;
2866;SDS011;1441;48.886;8.728;2023-04-24T01:49:21;1.37;;;0.70;;
2866;SDS011;1441;48.886;8.728;2023-04-24T01:51:47;0.90;;;0.50;;
2866;SDS011;1441;48.886;8.728;2023-04-24T01:54:13;0.90;;;0.50;;
2866;SDS011;1441;48.886;8.728;2023-04-24T01:56:42;0.70;;;0.60;;
2866;SDS011;1441;48.886;8.728;2023-04-24T01:59:09;1.50;;;0.90;;
2866;SDS011;1441;48.886;8.728;2023-04-24T02:01:36;1.17;;;0.40;;
2866;SDS011;1441;48.886;8.728;2023-04-24T02:04:02;0.50;;;0.50;;
2866;SDS011;1441;48.886;8.728;2023-04-24T02:06:28;3.53;;;0.50;;
2866;SDS011;1441;48.886;8.728;2023-04-24T02:08:54;0.57;;;0.57;;
2866;SDS011;1441;48.886;8.728;2023-04-24T02:11:19;0.70;;;0.50;;
2866;SDS011;1441;48.886;8.728;2023-04-24T02:13:45;1.33;;;0.50;;
2866;SDS011;1441;48.886;8.728;2023-04-24T02:16:10;0.77;;;0.57;;
2866;SDS011;1441;48.886;8.728;2023-04-24T02:18:36;1.00;;;0.70;;
2866;SDS011;1441;48.886;8.728;2023-04-24T02:21:01;1.53;;;0.70;;
2866;SDS011;1441;48.886;8.728;2023-04-24T02:23:27;0.40;;;0.40;;
2866;SDS011;1441;48.886;8.728;2023-04-24T02:25:53;2.10;;;0.60;;
2866;SDS011;1441;48.886;8.728;2023-04-24T02:28:18;0.83;;;0.50;;
2866;SDS011;1441;48.886;8.728;2023-04-24T02:30:44;1.13;;;0.50;;
2866;SDS011;1441;48.886;8.728;2023-04-24T02:33:10;1.60;;;0.63;;
2866;SDS011;1441;48.886;8.728;2023-04-24T02:35:36;3.50;;;0.70;;
2866;SDS011;1441;48.886;8.728;2023-04-24T02:38:02;0.50;;;0.50;;
2866;SDS011;1441;48.886;8.728;2023-04-24T02:40:28;0.50;;;0.50;;
2866;SDS011;1441;48.886;8.728;2023-04-24T02:42:54;0.60;;;0.60;;
2866;SDS011;1441;48.886;8.728;2023-04-24T02:45:20;2.77;;;0.50;;
2866;SDS011;1441;48.886;8.728;2023-04-24T02:47:45;0.77;;;0.40;;
2866;SDS011;1441;48.886;8.728;2023-04-24T02:50:11;3.27;;;0.60;;
2866;SDS011;1441;48.886;8.728;2023-04-24T02:52:36;1.80;;;0.70;;
2866;SDS011;1441;48.886;8.728;2023-04-24T02:55:02;2.33;;;0.50;;
2866;SDS011;1441;48.886;8.728;2023-04-24T02:57:28;0.73;;;0.60;;
2866;SDS011;1441;48.886;8.728;2023-04-24T02:59:53;1.53;;;0.53;;
2866;SDS011;1441;48.886;8.728;2023-04-24T03:02:19;1.17;;;0.40;;
2866;SDS011;1441;48.886;8.728;2023-04-24T03:04:45;1.27;;;0.57;;
2866;SDS011;1441;48.886;8.728;2023-04-24T03:07:12;2.00;;;0.50;;
2866;SDS011;1441;48.886;8.728;2023-04-24T03:09:39;0.60;;;0.60;;
2866;SDS011;1441;48.886;8.728;2023-04-24T03:12:05;1.77;;;0.70;;
2866;SDS011;1441;48.886;8.728;2023-04-24T03:14:31;0.50;;;0.50;;
2866;SDS011;1441;48.886;8.728;2023-04-24T03:16:57;0.80;;;0.70;;
2866;SDS011;1441;48.886;8.728;2023-04-24T03:19:22;1.00;;;0.60;;
2866;SDS011;1441;48.886;8.728;2023-04-24T03:21:48;1.17;;;0.80;;
2866;SDS011;1441;48.886;8.728;2023-04-24T03:24:13;2.03;;;0.57;;
2866;SDS011;1441;48.886;8.728;2023-04-24T03:26:39;1.07;;;0.60;;
2866;SDS011;1441;48.886;8.728;2023-04-24T03:29:04;0.97;;;0.53;;
2866;SDS011;1441;48.886;8.728;2023-04-24T03:31:30;1.27;;;0.60;;
2866;SDS011;1441;48.886;8.728;2023-04-24T03:33:56;3.70;;;0.67;;
2866;SDS011;1441;48.886;8.728;2023-04-24T03:36:21;4.37;;;0.87;;
2866;SDS011;1441;48.886;8.728;2023-04-24T03:38:47;0.73;;;0.70;;
2866;SDS011;1441;48.886;8.728;2023-04-24T03:41:12;3.33;;;0.90;;
2866;SDS011;1441;48.886;8.728;2023-04-24T03:43:38;3.27;;;0.70;;
2866;SDS011;1441;48.886;8.728;2023-04-24T03:46:04;1.57;;;0.70;;
2866;SDS011;1441;48.886;8.728;2023-04-24T03:48:29;1.73;;;0.60;;
2866;SDS011;1441;48.886;8.728;2023-04-24T03:50:55;6.83;;;0.70;;
2866;SDS011;1441;48.886;8.728;2023-04-24T03:53:20;2.53;;;1.13;;
2866;SDS011;1441;48.886;8.728;2023-04-24T03:55:46;2.47;;;0.67;;
2866;SDS011;1441;48.886;8.728;2023-04-24T03:58:12;0.90;;;0.60;;
2866;SDS011;1441;48.886;8.728;2023-04-24T04:00:39;3.80;;;0.70;;
2866;SDS011;1441;48.886;8.728;2023-04-24T04:03:05;0.87;;;0.87;;
2866;SDS011;1441;48.886;8.728;2023-04-24T04:05:31;0.60;;;0.60;;
2866;SDS011;1441;48.886;8.728;2023-04-24T04:07:56;1.00;;;0.60;;
2866;SDS011;1441;48.886;8.728;2023-04-24T04:10:22;3.67;;;0.90;;
2866;SDS011;1441;48.886;8.728;2023-04-24T04:12:48;2.13;;;1.13;;
2866;SDS011;1441;48.886;8.728;2023-04-24T04:15:13;0.73;;;0.67;;
2866;SDS011;1441;48.886;8.728;2023-04-24T04:17:39;1.70;;;0.70;;
2866;SDS011;1441;48.886;8.728;2023-04-24T04:20:04;2.77;;;0.80;;
2866;SDS011;1441;48.886;8.728;2023-04-24T04:22:35;2.10;;;0.97;;
2866;SDS011;1441;48.886;8.728;2023-04-24T04:25:01;0.60;;;0.60;;
2866;SDS011;1441;48.886;8.728;2023-04-24T04:27:28;1.40;;;1.10;;
2866;SDS011;1441;48.886;8.728;2023-04-24T04:29:56;0.90;;;0.90;;
2866;SDS011;1441;48.886;8.728;2023-04-24T04:32:24;1.60;;;0.73;;
2866;SDS011;1441;48.886;8.728;2023-04-24T04:34:51;2.03;;;1.83;;
2866;SDS011;1441;48.886;8.728;2023-04-24T04:37:18;5.50;;;1.00;;
2866;SDS011;1441;48.886;8.728;2023-04-24T04:39:44;2.73;;;1.17;;
2866;SDS011;1441;48.886;8.728;2023-04-24T04:42:09;0.90;;;0.90;;
2866;SDS011;1441;48.886;8.728;2023-04-24T04:44:35;1.83;;;1.10;;
2866;SDS011;1441;48.886;8.728;2023-04-24T04:47:01;1.10;;;1.10;;
2866;SDS011;1441;48.886;8.728;2023-04-24T04:49:30;1.07;;;0.97;;
2866;SDS011;1441;48.886;8.728;2023-04-24T04:51:56;1.77;;;1.27;;
2866;SDS011;1441;48.886;8.728;2023-04-24T04:54:22;2.57;;;1.00;;
2866;SDS011;1441;48.886;8.728;2023-04-24T04:56:49;7.63;;;1.60;;
2866;SDS011;1441;48.886;8.728;2023-04-24T04:59:15;1.80;;;1.27;;
2866;SDS011;1441;48.886;8.728;2023-04-24T05:01:41;2.93;;;1.40;;
2866;SDS011;1441;48.886;8.728;2023-04-24T05:04:06;1.97;;;1.50;;
2866;SDS011;1441;48.886;8.728;2023-04-24T05:06:32;3.07;;;1.50;;
2866;SDS011;1441;48.886;8.728;2023-04-24T05:08:58;1.83;;;1.73;;
2866;SDS011;1441;48.886;8.728;2023-04-24T05:11:23;1.47;;;1.37;;
2866;SDS011;1441;48.886;8.728;2023-04-24T05:13:49;1.50;;;1.30;;
2866;SDS011;1441;48.886;8.728;2023-04-24T05:16:15;4.83;;;1.00;;
2866;SDS011;1441;48.886;8.728;2023-04-24T05:18:40;1.30;;;1.27;;
2866;SDS011;1441;48.886;8.728;2023-04-24T05:21:06;1.33;;;1.30;;
2866;SDS011;1441;48.886;8.728;2023-04-24T05:23:31;1.50;;;1.40;;
2866;SDS011;1441;48.886;8.728;2023-04-24T05:25:57;1.53;;;1.43;;
2866;SDS011;1441;48.886;8.728;2023-04-24T05:28:22;1.40;;;1.30;;
2866;SDS011;1441;48.886;8.728;2023-04-24T05:30:48;1.70;;;1.60;;
2866;SDS011;1441;48.886;8.728;2023-04-24T05:33:13;2.40;;;1.20;;
2866;SDS011;1441;48.886;8.728;2023-04-24T05:35:40;1.27;;;1.17;;
2866;SDS011;1441;48.886;8.728;2023-04-24T05:38:10;1.87;;;1.30;;
2866;SDS011;1441;48.886;8.728;2023-04-24T05:40:36;1.40;;;1.40;;
2866;SDS011;1441;48.886;8.728;2023-04-24T05:43:02;2.70;;;1.40;;
2866;SDS011;1441;48.886;8.728;2023-04-24T05:45:27;1.60;;;1.50;;
2866;SDS011;1441;48.886;8.728;2023-04-24T05:47:53;1.30;;;1.20;;
2866;SDS011;1441;48.886;8.728;2023-04-24T05:50:18;2.43;;;1.33;;
2866;SDS011;1441;48.886;8.728;2023-04-24T05:52:44;1.37;;;1.27;;
2866;SDS011;1441;48.886;8.728;2023-04-24T05:55:10;1.50;;;1.20;;
2866;SDS011;1441;48.886;8.728;2023-04-24T05:57:36;2.03;;;1.80;;
2866;SDS011;1441;48.886;8.728;2023-04-24T06:00:01;3.50;;;1.23;;
2866;SDS011;1441;48.886;8.728;2023-04-24T06:02:28;1.50;;;1.40;;
2866;SDS011;1441;48.886;8.728;2023-04-24T06:04:57;2.30;;;0.90;;
2866;SDS011;1441;48.886;8.728;2023-04-24T06:07:24;1.77;;;1.30;;
2866;SDS011;1441;48.886;8.728;2023-04-24T06:09:51;1.30;;;1.20;;
2866;SDS011;1441;48.886;8.728;2023-04-24T06:12:17;3.33;;;1.33;;
2866;SDS011;1441;48.886;8.728;2023-04-24T06:14:43;1.00;;;1.00;;
2866;SDS011;1441;48.886;8.728;2023-04-24T06:17:08;1.30;;;1.20;;
2866;SDS011;1441;48.886;8.728;2023-04-24T06:19:34;1.73;;;1.27;;
2866;SDS011;1441;48.886;8.728;2023-04-24T06:22:00;2.43;;;1.43;;
2866;SDS011;1441;48.886;8.728;2023-04-24T06:24:28;2.50;;;1.60;;
2866;SDS011;1441;48.886;8.728;2023-04-24T06:26:54;3.60;;;1.30;;
2866;SDS011;1441;48.886;8.728;2023-04-24T06:29:19;1.57;;;1.20;;
2866;SDS011;1441;48.886;8.728;2023-04-24T06:31:45;1.20;;;1.10;;
2866;SDS011;1441;48.886;8.728;2023-04-24T06:34:11;1.07;;;1.00;;
2866;SDS011;1441;48.886;8.728;2023-04-24T06:36:36;4.77;;;1.60;;
2866;SDS011;1441;48.886;8.728;2023-04-24T06:39:02;1.97;;;1.23;;
2866;SDS011;1441;48.886;8.728;2023-04-24T06:41:28;1.40;;;1.27;;
2866;SDS011;1441;48.886;8.728;2023-04-24T06:43:54;1.13;;;1.03;;
2866;SDS011;1441;48.886;8.728;2023-04-24T06:46:19;2.10;;;1.23;;
2866;SDS011;1441;48.886;8.728;2023-04-24T06:48:48;4.07;;;0.97;;
2866;SDS011;1441;48.886;8.728;2023-04-24T06:51:14;2.30;;;1.20;;
2866;SDS011;1441;48.886;8.728;2023-04-24T06:53:40;4.80;;;1.20;;
2866;SDS011;1441;48.886;8.728;2023-04-24T06:56:05;1.93;;;1.10;;
2866;SDS011;1441;48.886;8.728;2023-04-24T06:58:31;3.70;;;1.10;;
2866;SDS011;1441;48.886;8.728;2023-04-24T07:00:57;1.53;;;1.20;;
2866;SDS011;1441;48.886;8.728;2023-04-24T07:03:22;7.63;;;1.30;;
2866;SDS011;1441;48.886;8.728;2023-04-24T07:05:48;3.63;;;1.10;;
2866;SDS011;1441;48.886;8.728;2023-04-24T07:08:14;5.30;;;1.20;;
2866;SDS011;1441;48.886;8.728;2023-04-24T07:10:42;2.77;;;1.00;;
2866;SDS011;1441;48.886;8.728;2023-04-24T07:13:07;1.97;;;0.97;;
2866;SDS011;1441;48.886;8.728;2023-04-24T07:15:33;1.43;;;1.00;;
2866;SDS011;1441;48.886;8.728;2023-04-24T07:17:59;1.80;;;1.20;;
2866;SDS011;1441;48.886;8.728;2023-04-24T07:20:25;3.47;;;1.07;;
2866;SDS011;1441;48.886;8.728;2023-04-24T07:22:51;1.00;;;1.00;;
2866;SDS011;1441;48.886;8.728;2023-04-24T07:25:18;2.50;;;0.90;;
2866;SDS011;1441;48.886;8.728;2023-04-24T07:27:44;3.57;;;1.73;;
2866;SDS011;1441;48.886;8.728;2023-04-24T07:30:10;2.20;;;1.10;;
2866;SDS011;1441;48.886;8.728;2023-04-24T07:32:36;1.37;;;1.27;;
2866;SDS011;1441;48.886;8.728;2023-04-24T07:35:02;2.63;;;1.03;;
2866;SDS011;1441;48.886;8.728;2023-04-24T07:37:27;1.67;;;1.07;;
2866;SDS011;1441;48.886;8.728;2023-04-24T07:39:53;2.40;;;1.43;;
2866;SDS011;1441;48.886;8.728;2023-04-24T07:42:19;1.10;;;1.00;;
2866;SDS011;1441;48.886;8.728;2023-04-24T07:44:45;0.90;;;0.90;;
2866;SDS011;1441;48.886;8.728;2023-04-24T07:47:12;2.23;;;0.90;;
2866;SDS011;1441;48.886;8.728;2023-04-24T07:49:41;1.73;;;1.00;;
2866;SDS011;1441;48.886;8.728;2023-04-24T07:52:06;1.20;;;1.10;;
2866;SDS011;1441;48.886;8.728;2023-04-24T07:54:32;1.20;;;1.10;;
2866;SDS011;1441;48.886;8.728;2023-04-24T07:56:58;0.93;;;0.93;;
2866;SDS011;1441;48.886;8.728;2023-04-24T07:59:23;0.90;;;0.90;;
2866;SDS011;1441;48.886;8.728;2023-04-24T08:01:49;1.10;;;1.00;;
2866;SDS011;1441;48.886;8.728;2023-04-24T08:04:14;1.10;;;1.00;;
2866;SDS011;1441;48.886;8.728;2023-04-24T08:06:40;1.20;;;1.10;;
2866;SDS011;1441;48.886;8.728;2023-04-24T08:09:06;1.13;;;0.80;;
2866;SDS011;1441;48.886;8.728;2023-04-24T08:11:32;1.00;;;0.90;;
2866;SDS011;1441;48.886;8.728;2023-04-24T08:13:57;1.13;;;0.80;;
2866;SDS011;1441;48.886;8.728;2023-04-24T08:16:23;0.90;;;0.80;;
2866;SDS011;1441;48.886;8.728;2023-04-24T08:18:49;1.97;;;0.80;;
2866;SDS011;1441;48.886;8.728;2023-04-24T08:21:15;4.50;;;0.70;;
2866;SDS011;1441;48.886;8.728;2023-04-24T08:23:43;1.83;;;0.90;;
2866;SDS011;1441;48.886;8.728;2023-04-24T08:26:09;2.50;;;0.80;;
2866;SDS011;1441;48.886;8.728;2023-04-24T08:28:36;0.80;;;0.80;;
2866;SDS011;1441;48.886;8.728;2023-04-24T08:31:02;2.60;;;1.13;;
2866;SDS011;1441;48.886;8.728;2023-04-24T08:33:27;1.07;;;0.90;;
2866;SDS011;1441;48.886;8.728;2023-04-24T08:35:59;2.17;;;0.90;;
2866;SDS011;1441;48.886;8.728;2023-04-24T08:38:25;1.10;;;1.00;;
2866;SDS011;1441;48.886;8.728;2023-04-24T08:40:51;2.77;;;0.80;;
2866;SDS011;1441;48.886;8.728;2023-04-24T08:43:17;4.73;;;1.10;;
2866;SDS011;1441;48.886;8.728;2023-04-24T08:45:43;1.63;;;1.10;;
2866;SDS011;1441;48.886;8.728;2023-04-24T08:48:09;1.23;;;0.90;;
2866;SDS011;1441;48.886;8.728;2023-04-24T08:50:34;0.80;;;0.80;;
2866;SDS011;1441;48.886;8.728;2023-04-24T08:53:01;0.80;;;0.80;;
2866;SDS011;1441;48.886;8.728;2023-04-24T08:55:27;0.50;;;0.50;;
2866;SDS011;1441;48.886;8.728;2023-04-24T08:57:55;5.63;;;0.60;;
2866;SDS011;1441;48.886;8.728;2023-04-24T09:00:21;3.50;;;0.90;;
2866;SDS011;1441;48.886;8.728;2023-04-24T09:02:47;2.40;;;0.90;;
2866;SDS011;1441;48.886;8.728;2023-04-24T09:05:15;3.47;;;0.70;;
2866;SDS011;1441;48.886;8.728;2023-04-24T09:07:43;1.23;;;0.60;;
2866;SDS011;1441;48.886;8.728;2023-04-24T09:10:18;3.00;;;0.80;;
2866;SDS011;1441;48.886;8.728;2023-04-24T09:12:45;6.43;;;0.90;;
2866;SDS011;1441;48.886;8.728;2023-04-24T09:15:11;1.23;;;0.80;;
2866;SDS011;1441;48.886;8.728;2023-04-24T09:17:37;5.30;;;1.23;;
2866;SDS011;1441;48.886;8.728;2023-04-24T09:20:03;2.40;;;0.70;;
2866;SDS011;1441;48.886;8.728;2023-04-24T09:22:30;4.97;;;0.80;;
2866;SDS011;1441;48.886;8.728;2023-04-24T09:25:06;1.63;;;0.87;;
2866;SDS011;1441;48.886;8.728;2023-04-24T09:27:33;2.47;;;0.67;;
2866;SDS011;1441;48.886;8.728;2023-04-24T09:30:00;1.63;;;0.73;;
2866;SDS011;1441;48.886;8.728;2023-04-24T09:32:27;1.30;;;0.70;;
2866;SDS011;1441;48.886;8.728;2023-04-24T09:35:08;2.10;;;0.80;;
2866;SDS011;1441;48.886;8.728;2023-04-24T09:37:36;7.63;;;0.80;;
2866;SDS011;1441;48.886;8.728;2023-04-24T09:40:07;2.53;;;0.80;;
2866;SDS011;1441;48.886;8.728;2023-04-24T09:42:37;1.00;;;0.87;;
2866;SDS011;1441;48.886;8.728;2023-04-24T09:45:03;1.73;;;0.80;;
2866;SDS011;1441;48.886;8.728;2023-04-24T09:47:37;3.60;;;1.00;;
2866;SDS011;1441;48.886;8.728;2023-04-24T09:50:15;0.70;;;0.67;;
2866;SDS011;1441;48.886;8.728;2023-04-24T09:55:27;2.60;;;0.90;;
2866;SDS011;1441;48.886;8.728;2023-04-24T10:00:29;1.20;;;1.10;;
2866;SDS011;1441;48.886;8.728;2023-04-24T10:02:57;1.27;;;1.07;;
2866;SDS011;1441;48.886;8.728;2023-04-24T10:05:24;3.47;;;1.23;;
2866;SDS011;1441;48.886;8.728;2023-04-24T10:07:55;1.53;;;1.07;;
2866;SDS011;1441;48.886;8.728;2023-04-24T10:10:22;1.80;;;1.03;;
2866;SDS011;1441;48.886;8.728;2023-04-24T10:12:48;2.87;;;0.83;;
2866;SDS011;1441;48.886;8.728;2023-04-24T10:15:16;3.63;;;1.07;;
2866;SDS011;1441;48.886;8.728;2023-04-24T10:17:46;2.50;;;1.20;;
2866;SDS011;1441;48.886;8.728;2023-04-24T10:20:17;1.17;;;1.07;;
2866;SDS011;1441;48.886;8.728;2023-04-24T10:22:44;1.67;;;1.03;;
2866;SDS011;1441;48.886;8.728;2023-04-24T10:25:14;2.70;;;1.10;;
2866;SDS011;1441;48.886;8.728;2023-04-24T10:27:42;1.40;;;1.00;;
2866;SDS011;1441;48.886;8.728;2023-04-24T10:30:10;0.93;;;0.93;;
2866;SDS011;1441;48.886;8.728;2023-04-24T10:32:37;4.47;;;1.10;;
2866;SDS011;1441;48.886;8.728;2023-04-24T10:35:03;1.63;;;0.90;;
2866;SDS011;1441;48.886;8.728;2023-04-24T10:37:34;4.33;;;1.30;;
2866;SDS011;1441;48.886;8.728;2023-04-24T10:40:02;1.70;;;1.00;;
2866;SDS011;1441;48.886;8.728;2023-04-24T10:42:28;5.63;;;1.60;;
2866;SDS011;1441;48.886;8.728;2023-04-24T10:44:54;23.77;;;3.47;;
2866;SDS011;1441;48.886;8.728;2023-04-24T10:47:20;0.80;;;0.80;;
2866;SDS011;1441;48.886;8.728;2023-04-24T10:49:46;3.40;;;1.37;;
2866;SDS011;1441;48.886;8.728;2023-04-24T10:52:16;0.80;;;0.80;;
2866;SDS011;1441;48.886;8.728;2023-04-24T10:54:45;3.77;;;1.10;;
2866;SDS011;1441;48.886;8.728;2023-04-24T10:59:43;1.70;;;1.07;;
2866;SDS011;1441;48.886;8.728;2023-04-24T11:02:09;1.77;;;1.30;;
2866;SDS011;1441;48.886;8.728;2023-04-24T11:04:35;5.03;;;1.20;;
2866;SDS011;1441;48.886;8.728;2023-04-24T11:07:02;1.17;;;1.10;;
2866;SDS011;1441;48.886;8.728;2023-04-24T11:09:29;1.30;;;1.00;;
2866;SDS011;1441;48.886;8.728;2023-04-24T11:12:29;3.17;;;1.00;;
2866;SDS011;1441;48.886;8.728;2023-04-24T11:17:32;1.70;;;0.90;;
2866;SDS011;1441;48.886;8.728;2023-04-24T11:20:09;1.27;;;0.97;;
2866;SDS011;1441;48.886;8.728;2023-04-24T11:22:36;2.30;;;1.17;;
2866;SDS011;1441;48.886;8.728;2023-04-24T11:25:04;1.10;;;1.10;;
2866;SDS011;1441;48.886;8.728;2023-04-24T11:27:33;1.20;;;1.10;;
2866;SDS011;1441;48.886;8.728;2023-04-24T11:30:07;1.47;;;1.30;;
2866;SDS011;1441;48.886;8.728;2023-04-24T11:32:40;2.70;;;1.50;;
2866;SDS011;1441;48.886;8.728;2023-04-24T11:37:39;1.37;;;1.23;;
2866;SDS011;1441;48.886;8.728;2023-04-24T11:40:07;2.60;;;1.03;;
2866;SDS011;1441;48.886;8.728;2023-04-24T11:42:37;1.10;;;1.07;;
2866;SDS011;1441;48.886;8.728;2023-04-24T11:45:11;3.50;;;1.10;;
2866;SDS011;1441;48.886;8.728;2023-04-24T11:47:38;1.47;;;1.20;;
2866;SDS011;1441;48.886;8.728;2023-04-24T11:50:05;0.90;;;0.90;;
2866;SDS011;1441;48.886;8.728;2023-04-24T11:52:33;1.10;;;0.93;;
2866;SDS011;1441;48.886;8.728;2023-04-24T11:55:02;0.97;;;0.97;;
2866;SDS011;1441;48.886;8.728;2023-04-24T11:57:28;0.80;;;0.80;;
2866;SDS011;1441;48.886;8.728;2023-04-24T11:59:58;4.80;;;1.37;;
2866;SDS011;1441;48.886;8.728;2023-04-24T12:02:25;2.10;;;1.40;;
2866;SDS011;1441;48.886;8.728;2023-04-24T12:04:52;1.50;;;1.40;;
2866;SDS011;1441;48.886;8.728;2023-04-24T12:07:19;3.10;;;1.57;;
2866;SDS011;1441;48.886;8.728;2023-04-24T12:09:49;1.40;;;1.30;;
2866;SDS011;1441;48.886;8.728;2023-04-24T12:12:20;1.63;;;1.23;;
2866;SDS011;1441;48.886;8.728;2023-04-24T12:14:52;2.83;;;1.30;;
2866;SDS011;1441;48.886;8.728;2023-04-24T12:19:52;1.50;;;1.40;;
2866;SDS011;1441;48.886;8.728;2023-04-24T12:22:21;3.90;;;2.13;;
2866;SDS011;1441;48.886;8.728;2023-04-24T12:25:03;8.03;;;2.37;;
2866;SDS011;1441;48.886;8.728;2023-04-24T12:27:33;2.87;;;1.47;;
2866;SDS011;1441;48.886;8.728;2023-04-24T12:29:59;4.20;;;1.60;;
2866;SDS011;1441;48.886;8.728;2023-04-24T12:32:27;4.30;;;1.40;;
2866;SDS011;1441;48.886;8.728;2023-04-24T12:34:53;1.93;;;0.97;;
2866;SDS011;1441;48.886;8.728;2023-04-24T12:37:20;2.37;;;1.50;;
2866;SDS011;1441;48.886;8.728;2023-04-24T12:40:04;1.93;;;1.60;;
2866;SDS011;1441;48.886;8.728;2023-04-24T12:42:35;2.10;;;1.60;;
2866;SDS011;1441;48.886;8.728;2023-04-24T12:45:06;6.50;;;1.67;;
2866;SDS011;1441;48.886;8.728;2023-04-24T12:47:33;2.03;;;1.70;;
2866;SDS011;1441;48.886;8.728;2023-04-24T12:49:59;12.17;;;2.77;;
2866;SDS011;1441;48.886;8.728;2023-04-24T12:52:26;9.20;;;1.77;;
2866;SDS011;1441;48.886;8.728;2023-04-24T12:54:54;5.40;;;1.67;;
2866;SDS011;1441;48.886;8.728;2023-04-24T12:57:22;10.33;;;2.80;;
2866;SDS011;1441;48.886;8.728;2023-04-24T12:59:48;2.30;;;1.60;;
2866;SDS011;1441;48.886;8.728;2023-04-24T13:02:13;18.57;;;2.30;;
2866;SDS011;1441;48.886;8.728;2023-04-24T13:04:42;5.43;;;2.00;;
2866;SDS011;1441;48.886;8.728;2023-04-24T13:07:09;3.57;;;2.20;;
2866;SDS011;1441;48.886;8.728;2023-04-24T13:09:35;1.47;;;1.37;;
2866;SDS011;1441;48.886;8.728;2023-04-24T13:12:01;1.90;;;1.77;;
2866;SDS011;1441;48.886;8.728;2023-04-24T13:14:26;1.90;;;1.80;;
2866;SDS011;1441;48.886;8.728;2023-04-24T13:16:52;3.83;;;1.73;;
2866;SDS011;1441;48.886;8.728;2023-04-24T13:19:18;2.77;;;1.80;;
2866;SDS011;1441;48.886;8.728;2023-04-24T13:21:43;2.07;;;1.87;;
2866;SDS011;1441;48.886;8.728;2023-04-24T13:24:09;2.50;;;1.60;;
2866;SDS011;1441;48.886;8.728;2023-04-24T13:26:35;2.57;;;2.13;;
2866;SDS011;1441;48.886;8.728;2023-04-24T13:29:00;5.50;;;2.33;;
2866;SDS011;1441;48.886;8.728;2023-04-24T13:31:26;2.10;;;1.93;;
2866;SDS011;1441;48.886;8.728;2023-04-24T13:33:51;2.90;;;1.70;;
2866;SDS011;1441;48.886;8.728;2023-04-24T13:36:17;3.10;;;1.80;;
2866;SDS011;1441;48.886;8.728;2023-04-24T13:38:43;1.80;;;1.53;;
2866;SDS011;1441;48.886;8.728;2023-04-24T13:41:09;3.60;;;1.63;;
2866;SDS011;1441;48.886;8.728;2023-04-24T13:43:35;7.40;;;1.77;;
2866;SDS011;1441;48.886;8.728;2023-04-24T13:46:01;1.70;;;1.70;;
2866;SDS011;1441;48.886;8.728;2023-04-24T13:48:29;2.10;;;1.50;;
2866;SDS011;1441;48.886;8.728;2023-04-24T13:50:55;3.53;;;1.70;;
2866;SDS011;1441;48.886;8.728;2023-04-24T13:53:21;2.60;;;1.70;;
2866;SDS011;1441;48.886;8.728;2023-04-24T13:55:46;3.23;;;1.67;;
2866;SDS011;1441;48.886;8.728;2023-04-24T13:58:12;1.83;;;1.73;;
2866;SDS011;1441;48.886;8.728;2023-04-24T14:00:38;1.53;;;1.43;;
2866;SDS011;1441;48.886;8.728;2023-04-24T14:03:04;2.20;;;1.50;;
2866;SDS011;1441;48.886;8.728;2023-04-24T14:05:29;1.70;;;1.60;;
2866;SDS011;1441;48.886;8.728;2023-04-24T14:07:55;1.70;;;1.57;;
2866;SDS011;1441;48.886;8.728;2023-04-24T14:10:20;1.57;;;1.47;;
2866;SDS011;1441;48.886;8.728;2023-04-24T14:12:46;1.53;;;1.10;;
2866;SDS011;1441;48.886;8.728;2023-04-24T14:15:11;2.00;;;1.30;;
2866;SDS011;1441;48.886;8.728;2023-04-24T14:17:38;1.23;;;1.13;;
2866;SDS011;1441;48.886;8.728;2023-04-24T14:20:04;1.43;;;1.10;;
2866;SDS011;1441;48.886;8.728;2023-04-24T14:22:31;1.33;;;1.23;;
2866;SDS011;1441;48.886;8.728;2023-04-24T14:24:57;1.40;;;1.30;;
2866;SDS011;1441;48.886;8.728;2023-04-24T14:27:23;3.73;;;1.40;;
2866;SDS011;1441;48.886;8.728;2023-04-24T14:29:50;3.60;;;1.57;;
2866;SDS011;1441;48.886;8.728;2023-04-24T14:32:15;7.60;;;1.27;;
2866;SDS011;1441;48.886;8.728;2023-04-24T14:34:41;2.83;;;1.20;;
2866;SDS011;1441;48.886;8.728;2023-04-24T14:37:07;4.33;;;1.30;;
2866;SDS011;1441;48.886;8.728;2023-04-24T14:39:32;4.50;;;1.53;;
2866;SDS011;1441;48.886;8.728;2023-04-24T14:41:58;11.70;;;1.60;;
2866;SDS011;1441;48.886;8.728;2023-04-24T14:44:26;1.83;;;1.70;;
2866;SDS011;1441;48.886;8.728;2023-04-24T14:46:51;1.60;;;1.50;;
2866;SDS011;1441;48.886;8.728;2023-04-24T14:49:18;2.40;;;1.50;;
2866;SDS011;1441;48.886;8.728;2023-04-24T14:51:43;2.03;;;1.13;;
2866;SDS011;1441;48.886;8.728;2023-04-24T14:54:09;1.00;;;1.00;;
2866;SDS011;1441;48.886;8.728;2023-04-24T14:56:35;0.90;;;0.90;;
2866;SDS011;1441;48.886;8.728;2023-04-24T14:59:00;1.30;;;1.20;;
2866;SDS011;1441;48.886;8.728;2023-04-24T15:01:26;1.20;;;0.93;;
2866;SDS011;1441;48.886;8.728;2023-04-24T15:03:52;0.87;;;0.87;;
2866;SDS011;1441;48.886;8.728;2023-04-24T15:06:17;1.10;;;1.00;;
2866;SDS011;1441;48.886;8.728;2023-04-24T15:08:43;2.13;;;1.20;;
2866;SDS011;1441;48.886;8.728;2023-04-24T15:11:09;1.00;;;0.93;;
2866;SDS011;1441;48.886;8.728;2023-04-24T15:13:35;1.20;;;1.10;;
2866;SDS011;1441;48.886;8.728;2023-04-24T15:16:01;1.27;;;1.10;;
2866;SDS011;1441;48.886;8.728;2023-04-24T15:18:27;1.47;;;1.40;;
2866;SDS011;1441;48.886;8.728;2023-04-24T15:20:54;0.97;;;0.97;;
2866;SDS011;1441;48.886;8.728;2023-04-24T15:23:20;1.00;;;1.00;;
2866;SDS011;1441;48.886;8.728;2023-04-24T15:25:45;1.37;;;1.27;;
2866;SDS011;1441;48.886;8.728;2023-04-24T15:28:11;2.20;;;1.30;;